createdAt,value
2023-02-27T00:00:29.535Z,2.00
2023-02-27T00:01:02.177Z,2.00
2023-02-27T00:01:35.110Z,2.00
2023-02-27T00:02:07.465Z,2.00
2023-02-27T00:02:39.800Z,2.00
2023-02-27T00:03:12.135Z,2.00
2023-02-27T00:03:44.562Z,2.00
2023-02-27T00:04:16.949Z,2.00
2023-02-27T00:04:50.233Z,2.00
2023-02-27T00:05:22.974Z,2.00
2023-02-27T00:05:56.442Z,2.00
2023-02-27T00:06:29.193Z,2.00
2023-02-27T00:07:01.505Z,2.00
2023-02-27T00:07:33.767Z,2.00
2023-02-27T00:08:06.087Z,2.00
2023-02-27T00:08:38.408Z,2.00
2023-02-27T00:09:10.803Z,2.00
2023-02-27T00:09:43.180Z,2.00
2023-02-27T00:10:15.907Z,2.00
2023-02-27T00:10:48.227Z,2.00
2023-02-27T00:11:20.653Z,2.00
2023-02-27T00:11:52.945Z,2.00
2023-02-27T00:12:25.226Z,2.00
2023-02-27T00:12:57.826Z,2.00
2023-02-27T00:13:30.233Z,2.00
2023-02-27T00:14:02.623Z,2.00
2023-02-27T00:14:35.135Z,2.00
2023-02-27T00:15:16.827Z,2.00
2023-02-27T00:15:52.048Z,2.00
2023-02-27T00:16:24.439Z,2.00
2023-02-27T00:16:56.776Z,2.00
2023-02-27T00:17:29.769Z,3.00
2023-02-27T00:18:02.152Z,3.00
2023-02-27T00:18:34.645Z,3.00
2023-02-27T00:19:07.024Z,3.00
2023-02-27T00:19:39.296Z,3.00
2023-02-27T00:20:15.200Z,3.00
2023-02-27T00:20:48.549Z,3.00
2023-02-27T00:21:21.086Z,3.00
2023-02-27T00:21:53.365Z,3.00
2023-02-27T00:22:25.777Z,3.00
2023-02-27T00:22:58.089Z,3.00
2023-02-27T00:23:30.356Z,3.00
2023-02-27T00:24:02.629Z,3.00
2023-02-27T00:24:35.057Z,3.00
2023-02-27T00:25:08.842Z,3.00
2023-02-27T00:25:41.557Z,3.00
2023-02-27T00:26:13.932Z,3.00
2023-02-27T00:26:46.229Z,3.00
2023-02-27T00:27:18.746Z,3.00
2023-02-27T00:27:51.015Z,3.00
2023-02-27T00:28:23.577Z,3.00
2023-02-27T00:28:55.899Z,3.00
2023-02-27T00:29:28.887Z,3.00
2023-02-27T00:30:01.690Z,3.00
2023-02-27T00:30:34.282Z,3.00
2023-02-27T00:31:06.697Z,3.00
2023-02-27T00:31:39.176Z,3.00
2023-02-27T00:32:11.546Z,3.00
2023-02-27T00:32:44.232Z,3.00
2023-02-27T00:33:17.579Z,3.00
2023-02-27T00:33:49.912Z,3.00
2023-02-27T00:34:22.194Z,3.00
2023-02-27T00:34:54.553Z,3.00
2023-02-27T00:35:26.852Z,3.00
2023-02-27T00:36:01.210Z,3.00
2023-02-27T00:36:33.490Z,3.00
2023-02-27T00:37:05.814Z,3.00
2023-02-27T00:37:39.072Z,3.00
2023-02-27T00:38:11.403Z,3.00
2023-02-27T00:38:43.794Z,3.00
2023-02-27T00:39:16.076Z,3.00
2023-02-27T00:39:48.419Z,3.00
2023-02-27T00:40:20.940Z,3.00
2023-02-27T00:40:53.342Z,3.00
2023-02-27T00:41:25.877Z,3.00
2023-02-27T00:41:58.326Z,3.00
2023-02-27T00:42:31.253Z,3.00
2023-02-27T00:43:04.024Z,3.33
2023-02-27T00:43:36.332Z,4.00
2023-02-27T00:44:08.818Z,4.00
2023-02-27T00:44:41.324Z,4.00
2023-02-27T00:45:13.728Z,4.00
2023-02-27T00:45:46.006Z,4.00
2023-02-27T00:46:19.711Z,4.00
2023-02-27T00:46:52.147Z,4.00
2023-02-27T00:47:24.639Z,4.00
2023-02-27T00:47:56.908Z,4.00
2023-02-27T00:48:29.204Z,4.00
2023-02-27T00:49:01.458Z,4.00
2023-02-27T00:49:33.928Z,4.00
2023-02-27T00:50:06.433Z,4.00
2023-02-27T00:50:38.801Z,4.00
2023-02-27T00:51:11.142Z,4.00
2023-02-27T00:51:43.416Z,4.00
2023-02-27T00:52:15.830Z,4.00
2023-02-27T00:52:48.253Z,4.00
2023-02-27T00:53:20.655Z,4.00
2023-02-27T00:53:52.937Z,4.00
2023-02-27T00:54:25.304Z,4.00
2023-02-27T00:54:57.701Z,4.00
2023-02-27T00:55:30.060Z,4.00
2023-02-27T00:56:02.476Z,4.00
2023-02-27T00:56:35.223Z,4.00
2023-02-27T00:57:07.534Z,4.00
2023-02-27T00:57:40.477Z,4.00
2023-02-27T00:58:12.914Z,4.00
2023-02-27T00:58:45.232Z,4.00
2023-02-27T00:59:17.703Z,4.00
2023-02-27T00:59:50.015Z,4.67
2023-02-27T01:00:22.965Z,5.00
2023-02-27T01:00:55.268Z,5.00
2023-02-27T01:01:27.928Z,5.00
2023-02-27T01:02:00.413Z,5.00
2023-02-27T01:02:32.894Z,5.00
2023-02-27T01:03:05.281Z,5.00
2023-02-27T01:03:37.763Z,5.00
2023-02-27T01:04:10.612Z,5.00
2023-02-27T01:04:42.925Z,5.00
2023-02-27T01:05:15.736Z,5.00
2023-02-27T01:05:48.014Z,5.00
2023-02-27T01:06:20.301Z,5.00
2023-02-27T01:06:52.657Z,5.00
2023-02-27T01:07:24.927Z,5.00
2023-02-27T01:07:57.226Z,5.00
2023-02-27T01:08:29.528Z,5.00
2023-02-27T01:09:02.359Z,5.00
2023-02-27T01:09:34.781Z,5.00
2023-02-27T01:10:08.955Z,5.00
2023-02-27T01:10:41.227Z,5.00
2023-02-27T01:11:13.525Z,5.00
2023-02-27T01:11:45.804Z,5.00
2023-02-27T01:12:18.084Z,5.00
2023-02-27T01:12:50.432Z,5.00
2023-02-27T01:13:23.028Z,5.00
2023-02-27T01:13:55.324Z,5.00
2023-02-27T01:14:28.054Z,5.00
2023-02-27T01:15:00.320Z,5.00
2023-02-27T01:15:32.606Z,5.00
2023-02-27T01:16:05.173Z,5.00
2023-02-27T01:16:37.583Z,5.00
2023-02-27T01:17:10.243Z,5.67
2023-02-27T01:17:42.661Z,6.00
2023-02-27T01:18:14.966Z,6.00
2023-02-27T01:18:47.349Z,6.00
2023-02-27T01:19:19.670Z,6.00
2023-02-27T01:19:52.006Z,6.00
2023-02-27T01:20:24.283Z,6.00
2023-02-27T01:20:56.769Z,6.00
2023-02-27T01:21:29.238Z,6.00
2023-02-27T01:22:01.671Z,6.00
2023-02-27T01:22:34.782Z,6.00
2023-02-27T01:23:07.060Z,6.00
2023-02-27T01:23:39.385Z,6.00
2023-02-27T01:24:13.223Z,6.00
2023-02-27T01:24:45.502Z,6.00
2023-02-27T01:25:17.847Z,6.00
2023-02-27T01:25:50.800Z,6.00
2023-02-27T01:26:23.084Z,6.00
2023-02-27T01:26:55.410Z,6.00
2023-02-27T01:27:27.779Z,6.00
2023-02-27T01:28:00.431Z,6.00
2023-02-27T01:28:32.734Z,6.00
2023-02-27T01:29:06.500Z,6.00
2023-02-27T01:29:39.104Z,6.00
2023-02-27T01:30:12.613Z,6.00
2023-02-27T01:30:44.943Z,6.00
2023-02-27T01:31:17.589Z,6.00
2023-02-27T01:31:50.006Z,6.00
2023-02-27T01:32:22.708Z,6.00
2023-02-27T01:32:55.072Z,6.00
2023-02-27T01:33:27.877Z,6.00
2023-02-27T01:34:00.515Z,6.00
2023-02-27T01:34:34.231Z,6.00
2023-02-27T01:35:08.908Z,6.00
2023-02-27T01:35:41.534Z,6.00
2023-02-27T01:36:13.816Z,6.00
2023-02-27T01:36:46.113Z,6.00
2023-02-27T01:37:19.084Z,6.00
2023-02-27T01:38:11.664Z,6.00
2023-02-27T01:39:04.835Z,6.00
2023-02-27T01:39:37.186Z,6.00
2023-02-27T01:40:09.932Z,6.00
2023-02-27T01:40:43.545Z,6.00
2023-02-27T01:41:15.941Z,6.00
2023-02-27T01:41:48.898Z,6.00
2023-02-27T01:42:26.764Z,6.00
2023-02-27T01:42:59.088Z,6.00
2023-02-27T01:43:31.399Z,6.00
2023-02-27T01:44:14.832Z,6.00
2023-02-27T01:45:12.184Z,6.00
2023-02-27T01:45:49.380Z,6.00
2023-02-27T01:46:21.797Z,7.00
2023-02-27T01:46:54.129Z,7.00
2023-02-27T01:47:26.487Z,7.00
2023-02-27T01:48:30.904Z,7.00
2023-02-27T01:49:09.656Z,7.00
2023-02-27T01:49:42.080Z,7.00
2023-02-27T01:50:15.904Z,7.00
2023-02-27T01:51:15.683Z,7.00
2023-02-27T01:52:03.171Z,7.00
2023-02-27T01:52:38.718Z,7.00
2023-02-27T01:53:11.480Z,7.00
2023-02-27T01:53:48.219Z,7.00
2023-02-27T01:54:24.582Z,7.00
2023-02-27T01:54:57.616Z,7.00
2023-02-27T01:55:33.883Z,7.00
2023-02-27T01:56:12.544Z,7.00
2023-02-27T01:56:45.295Z,7.00
2023-02-27T01:57:17.586Z,7.00
2023-02-27T01:57:51.122Z,7.00
2023-02-27T01:58:23.739Z,7.00
2023-02-27T01:59:03.620Z,7.00
2023-02-27T01:59:38.626Z,7.00
2023-02-27T02:00:11.399Z,7.00
2023-02-27T02:00:43.910Z,7.00
2023-02-27T02:01:16.980Z,7.00
2023-02-27T02:01:49.983Z,7.00
2023-02-27T02:02:27.768Z,7.00
2023-02-27T02:03:06.776Z,7.33
2023-02-27T02:03:50.888Z,8.00
2023-02-27T02:04:33.693Z,8.00
2023-02-27T02:05:07.822Z,8.00
2023-02-27T02:05:40.432Z,8.00
2023-02-27T02:06:12.994Z,8.00
2023-02-27T02:06:54.010Z,8.00
2023-02-27T02:07:28.502Z,8.00
2023-02-27T02:08:01.401Z,8.00
2023-02-27T02:08:39.640Z,8.00
2023-02-27T02:09:15.481Z,8.00
2023-02-27T02:09:54.663Z,8.00
2023-02-27T02:10:28.162Z,8.00
2023-02-27T02:11:00.999Z,8.00
2023-02-27T02:11:33.569Z,8.00
2023-02-27T02:12:06.311Z,8.00
2023-02-27T02:12:39.285Z,8.00
2023-02-27T02:13:11.672Z,8.00
2023-02-27T02:13:44.193Z,8.00
2023-02-27T02:14:16.541Z,8.00
2023-02-27T02:14:48.822Z,8.00
2023-02-27T02:15:32.028Z,8.00
2023-02-27T02:16:48.568Z,8.00
2023-02-27T02:17:46.635Z,8.00
2023-02-27T02:18:42.314Z,8.00
2023-02-27T02:19:33.240Z,8.00
2023-02-27T02:20:29.893Z,8.00
2023-02-27T02:21:17.254Z,8.00
2023-02-27T02:22:13.628Z,8.00
2023-02-27T02:23:10.258Z,8.00
2023-02-27T02:24:16.572Z,8.00
2023-02-27T02:25:25.925Z,8.00
2023-02-27T02:26:44.040Z,8.00
2023-02-27T02:27:25.480Z,8.00
2023-02-27T02:28:22.175Z,8.00
2023-02-27T02:29:13.229Z,8.00
2023-02-27T02:30:13.376Z,9.00
2023-02-27T02:31:03.550Z,9.00
2023-02-27T02:31:35.966Z,9.00
2023-02-27T02:32:42.429Z,9.00
2023-02-27T02:33:39.610Z,9.00
2023-02-27T02:34:33.559Z,9.00
2023-02-27T02:35:38.479Z,9.00
2023-02-27T02:36:19.731Z,9.00
2023-02-27T02:37:14.545Z,9.00
2023-02-27T02:38:08.308Z,9.00
2023-02-27T02:39:02.980Z,9.00
2023-02-27T02:39:50.420Z,9.00
2023-02-27T02:40:37.930Z,9.00
2023-02-27T02:41:20.411Z,9.00
2023-02-27T02:42:23.648Z,9.00
2023-02-27T02:43:21.734Z,9.00
2023-02-27T02:44:12.248Z,9.00
2023-02-27T02:45:02.708Z,9.00
2023-02-27T02:46:04.319Z,9.00
2023-02-27T02:46:53.631Z,9.00
2023-02-27T02:48:11.163Z,9.00
2023-02-27T02:48:55.282Z,9.00
2023-02-27T02:49:38.316Z,9.00
2023-02-27T02:50:35.123Z,9.00
2023-02-27T02:51:20.376Z,9.00
2023-02-27T02:52:00.868Z,9.00
2023-02-27T02:52:43.977Z,9.00
2023-02-27T02:53:37.597Z,9.00
2023-02-27T02:54:41.007Z,9.00
2023-02-27T02:55:17.107Z,9.00
2023-02-27T02:56:05.874Z,9.00
2023-02-27T02:56:53.974Z,9.00
2023-02-27T02:57:43.856Z,9.00
2023-02-27T02:58:32.736Z,9.00
2023-02-27T02:59:18.249Z,9.00
2023-02-27T03:00:00.747Z,9.00
2023-02-27T03:00:39.404Z,9.00
2023-02-27T03:01:25.307Z,9.00
2023-02-27T03:02:05.188Z,9.00
2023-02-27T03:02:48.107Z,9.00
2023-02-27T03:03:27.983Z,9.00
2023-02-27T03:04:14.410Z,9.00
2023-02-27T03:04:58.010Z,9.00
2023-02-27T03:05:42.054Z,9.00
2023-02-27T03:06:27.799Z,9.00
2023-02-27T03:07:11.975Z,9.00
2023-02-27T03:07:53.891Z,9.00
2023-02-27T03:08:30.923Z,9.00
2023-02-27T03:09:10.069Z,9.00
2023-02-27T03:09:55.402Z,9.00
2023-02-27T03:10:43.512Z,9.00
2023-02-27T03:11:15.892Z,9.00
2023-02-27T03:11:52.829Z,9.00
2023-02-27T03:12:29.306Z,9.00
2023-02-27T03:13:14.527Z,9.00
2023-02-27T03:13:53.056Z,9.00
2023-02-27T03:14:44.295Z,10.00
2023-02-27T03:15:44.968Z,10.00
2023-02-27T03:16:42.044Z,10.00
2023-02-27T03:17:43.545Z,10.00
2023-02-27T03:18:28.191Z,10.00
2023-02-27T03:19:13.664Z,10.00
2023-02-27T03:20:05.867Z,10.00
2023-02-27T03:20:42.964Z,10.00
2023-02-27T03:21:25.488Z,10.00
2023-02-27T03:22:17.802Z,10.00
2023-02-27T03:22:55.964Z,10.00
2023-02-27T03:23:34.738Z,10.00
2023-02-27T03:24:12.944Z,10.00
2023-02-27T03:24:54.008Z,10.00
2023-02-27T03:25:28.752Z,10.00
2023-02-27T03:26:02.782Z,10.00
2023-02-27T03:26:42.524Z,10.00
2023-02-27T03:27:19.058Z,10.00
2023-02-27T03:28:00.114Z,10.00
2023-02-27T03:28:38.224Z,10.00
2023-02-27T03:29:19.320Z,10.00
2023-02-27T03:30:10.417Z,10.00
2023-02-27T03:30:55.828Z,10.00
2023-02-27T03:31:58.332Z,10.00
2023-02-27T03:32:49.512Z,10.00
2023-02-27T03:33:29.193Z,10.00
2023-02-27T03:34:15.887Z,10.00
2023-02-27T03:34:48.426Z,10.00
2023-02-27T03:35:20.692Z,10.00
2023-02-27T03:36:27.537Z,10.00
2023-02-27T03:37:21.585Z,10.00
2023-02-27T03:38:29.516Z,10.00
2023-02-27T03:39:18.679Z,10.00
2023-02-27T03:40:09.937Z,10.00
2023-02-27T03:40:53.821Z,10.00
2023-02-27T03:41:45.695Z,10.00
2023-02-27T03:42:36.049Z,10.00
2023-02-27T03:43:33.220Z,10.00
2023-02-27T03:44:38.059Z,10.00
2023-02-27T03:45:18.533Z,10.00
2023-02-27T03:45:50.743Z,10.00
2023-02-27T03:46:26.923Z,10.00
2023-02-27T03:46:59.779Z,10.00
2023-02-27T03:47:34.198Z,10.00
2023-02-27T03:48:09.107Z,10.00
2023-02-27T03:48:44.673Z,10.00
2023-02-27T03:49:17.262Z,10.00
2023-02-27T03:49:53.004Z,10.00
2023-02-27T03:50:25.367Z,10.00
2023-02-27T03:50:57.692Z,10.00
2023-02-27T03:51:31.617Z,10.00
2023-02-27T03:52:03.983Z,10.00
2023-02-27T03:52:36.446Z,10.00
2023-02-27T03:53:44.040Z,10.00
2023-02-27T03:54:22.632Z,10.00
2023-02-27T03:55:10.495Z,10.00
2023-02-27T03:55:46.995Z,10.00
2023-02-27T03:56:38.054Z,10.00
2023-02-27T03:57:11.731Z,10.00
2023-02-27T03:57:46.826Z,10.00
2023-02-27T03:58:19.459Z,10.00
2023-02-27T03:58:52.539Z,10.00
2023-02-27T03:59:26.630Z,10.00
2023-02-27T03:59:59.413Z,10.00
2023-02-27T04:00:32.082Z,10.00
2023-02-27T04:01:04.750Z,10.00
2023-02-27T04:01:37.697Z,10.00
2023-02-27T04:02:10.220Z,10.00
2023-02-27T04:02:44.827Z,10.00
2023-02-27T04:03:17.634Z,10.00
2023-02-27T04:03:57.889Z,10.00
2023-02-27T04:04:32.036Z,10.00
2023-02-27T04:05:04.493Z,10.00
2023-02-27T04:05:37.256Z,10.00
2023-02-27T04:06:28.431Z,10.00
2023-02-27T04:07:24.365Z,11.00
2023-02-27T04:08:18.955Z,11.00
2023-02-27T04:09:05.603Z,11.00
2023-02-27T04:10:15.752Z,11.00
2023-02-27T04:11:20.299Z,11.00
2023-02-27T04:12:11.943Z,11.00
2023-02-27T04:12:46.936Z,11.00
2023-02-27T04:13:19.187Z,11.00
2023-02-27T04:14:23.549Z,11.00
2023-02-27T04:15:07.475Z,11.00
2023-02-27T04:16:30.264Z,11.00
2023-02-27T04:17:37.697Z,11.00
2023-02-27T04:18:27.651Z,11.00
2023-02-27T04:19:05.923Z,11.00
2023-02-27T04:19:54.406Z,11.00
2023-02-27T04:20:36.536Z,11.00
2023-02-27T04:21:24.297Z,11.00
2023-02-27T04:22:11.071Z,11.00
2023-02-27T04:22:43.279Z,11.00
2023-02-27T04:23:30.726Z,11.00
2023-02-27T04:24:23.833Z,11.00
2023-02-27T04:25:35.366Z,11.00
2023-02-27T04:26:20.768Z,11.00
2023-02-27T04:27:06.971Z,11.00
2023-02-27T04:27:51.196Z,11.00
2023-02-27T04:28:47.391Z,11.00
2023-02-27T04:29:46.325Z,11.00
2023-02-27T04:30:37.042Z,11.00
2023-02-27T04:31:15.352Z,11.00
2023-02-27T04:32:00.995Z,11.00
2023-02-27T04:32:41.757Z,11.00
2023-02-27T04:33:44.462Z,11.00
2023-02-27T04:34:43.360Z,11.00
2023-02-27T04:35:31.729Z,10.00
2023-02-27T04:36:14.284Z,10.00
2023-02-27T04:36:59.081Z,10.00
2023-02-27T04:37:47.614Z,10.00
2023-02-27T04:38:28.069Z,10.00
2023-02-27T04:39:09.430Z,10.00
2023-02-27T04:39:51.971Z,10.00
2023-02-27T04:40:32.696Z,10.00
2023-02-27T04:41:15.665Z,10.00
2023-02-27T04:41:57.080Z,10.00
2023-02-27T04:42:37.614Z,10.00
2023-02-27T04:43:14.950Z,10.00
2023-02-27T04:43:49.872Z,10.00
2023-02-27T04:44:25.263Z,10.00
2023-02-27T04:45:01.402Z,10.00
2023-02-27T04:45:38.521Z,10.00
2023-02-27T04:46:15.417Z,10.00
2023-02-27T04:46:50.348Z,9.00
2023-02-27T04:47:25.310Z,9.00
2023-02-27T04:48:13.259Z,9.00
2023-02-27T04:49:11.111Z,9.00
2023-02-27T04:49:54.430Z,9.00
2023-02-27T04:50:35.709Z,9.00
2023-02-27T04:51:15.518Z,9.00
2023-02-27T04:52:00.595Z,10.00
2023-02-27T04:53:03.633Z,9.67
2023-02-27T04:54:01.807Z,9.00
2023-02-27T04:54:45.447Z,9.00
2023-02-27T04:55:27.212Z,9.00
2023-02-27T04:56:07.162Z,9.00
2023-02-27T04:56:47.717Z,9.00
2023-02-27T04:57:32.920Z,9.00
2023-02-27T04:58:13.358Z,9.00
2023-02-27T04:58:50.945Z,8.33
2023-02-27T04:59:28.475Z,8.00
2023-02-27T05:00:06.697Z,8.00
2023-02-27T05:00:43.003Z,8.00
2023-02-27T05:01:19.896Z,7.67
2023-02-27T05:02:03.324Z,7.00
2023-02-27T05:02:44.068Z,7.00
2023-02-27T05:03:22.168Z,7.00
2023-02-27T05:03:58.344Z,7.00
2023-02-27T05:04:37.176Z,7.00
2023-02-27T05:05:16.392Z,6.33
2023-02-27T05:05:52.242Z,6.00
2023-02-27T05:06:32.016Z,6.00
2023-02-27T05:07:09.480Z,6.00
2023-02-27T05:07:51.807Z,6.00
2023-02-27T05:08:49.857Z,6.00
2023-02-27T05:09:46.612Z,6.00
2023-02-27T05:10:30.664Z,6.00
2023-02-27T05:11:20.567Z,6.00
2023-02-27T05:12:20.161Z,6.00
2023-02-27T05:12:59.515Z,6.00
2023-02-27T05:13:38.035Z,6.00
2023-02-27T05:14:15.687Z,6.00
2023-02-27T05:15:05.716Z,6.00
2023-02-27T05:15:48.642Z,6.00
2023-02-27T05:16:28.301Z,6.00
2023-02-27T05:17:11.782Z,6.00
2023-02-27T05:17:59.691Z,6.00
2023-02-27T05:18:32.428Z,6.00
2023-02-27T05:19:06.187Z,5.67
2023-02-27T05:19:42.597Z,5.00
2023-02-27T05:20:17.086Z,5.00
2023-02-27T05:21:01.528Z,5.00
2023-02-27T05:21:51.004Z,5.00
2023-02-27T05:22:39.990Z,5.00
2023-02-27T05:23:25.443Z,5.00
2023-02-27T05:24:14.230Z,5.00
2023-02-27T05:25:02.282Z,4.33
2023-02-27T05:25:45.543Z,4.00
2023-02-27T05:27:25.633Z,4.00
2023-02-27T05:28:09.350Z,4.00
2023-02-27T05:28:52.300Z,4.00
2023-02-27T05:29:49.508Z,4.00
2023-02-27T05:30:40.662Z,4.00
2023-02-27T05:31:12.928Z,4.00
2023-02-27T05:31:56.902Z,4.33
2023-02-27T05:32:40.814Z,5.00
2023-02-27T05:33:21.049Z,5.00
2023-02-27T05:34:23.126Z,5.00
2023-02-27T05:35:09.054Z,5.00
2023-02-27T05:35:54.069Z,5.00
2023-02-27T05:36:36.712Z,5.00
2023-02-27T05:37:16.854Z,5.00
2023-02-27T05:38:16.877Z,5.00
2023-02-27T05:39:10.361Z,5.00
2023-02-27T05:39:47.352Z,5.00
2023-02-27T05:40:26.677Z,5.00
2023-02-27T05:41:09.243Z,5.00
2023-02-27T05:41:48.699Z,5.00
2023-02-27T05:42:30.993Z,5.00
2023-02-27T05:43:10.068Z,5.00
2023-02-27T05:43:53.832Z,5.00
2023-02-27T05:44:31.179Z,5.00
2023-02-27T05:45:11.345Z,6.00
2023-02-27T05:45:48.356Z,6.00
2023-02-27T05:46:27.086Z,6.00
2023-02-27T05:47:07.560Z,6.00
2023-02-27T05:47:47.797Z,6.00
2023-02-27T05:48:34.002Z,6.00
2023-02-27T05:49:14.480Z,6.00
2023-02-27T05:50:24.986Z,6.00
2023-02-27T05:50:59.606Z,6.00
2023-02-27T05:51:35.658Z,6.00
2023-02-27T05:52:13.217Z,6.00
2023-02-27T05:52:49.081Z,6.00
2023-02-27T05:53:25.823Z,6.00
2023-02-27T05:54:03.892Z,6.00
2023-02-27T05:55:01.059Z,6.00
2023-02-27T05:55:44.021Z,6.00
2023-02-27T05:56:19.935Z,6.00
2023-02-27T05:56:57.336Z,6.00
2023-02-27T05:57:39.057Z,6.00
2023-02-27T05:58:21.168Z,6.00
2023-02-27T05:59:04.099Z,6.00
2023-02-27T05:59:45.814Z,6.00
2023-02-27T06:00:34.188Z,6.00
2023-02-27T06:01:10.693Z,6.00
2023-02-27T06:01:45.829Z,6.00
2023-02-27T06:02:18.667Z,6.00
2023-02-27T06:02:51.064Z,6.00
2023-02-27T06:03:23.577Z,6.00
2023-02-27T06:03:56.335Z,6.00
2023-02-27T06:04:28.922Z,6.00
2023-02-27T06:05:01.539Z,6.00
2023-02-27T06:05:34.157Z,6.00
2023-02-27T06:06:11.596Z,6.00
2023-02-27T06:06:44.718Z,6.00
2023-02-27T06:07:17.032Z,6.00
2023-02-27T06:07:49.340Z,6.00
2023-02-27T06:08:22.482Z,6.00
2023-02-27T06:08:55.185Z,6.00
2023-02-27T06:09:27.437Z,6.00
2023-02-27T06:10:00.013Z,6.00
2023-02-27T06:10:32.567Z,6.00
2023-02-27T06:11:05.070Z,6.00
2023-02-27T06:11:37.346Z,6.00
2023-02-27T06:12:09.602Z,6.00
2023-02-27T06:12:42.278Z,6.00
2023-02-27T06:13:14.547Z,6.00
2023-02-27T06:13:46.843Z,6.00
2023-02-27T06:14:19.119Z,6.00
2023-02-27T06:14:51.829Z,6.00
2023-02-27T06:15:24.154Z,6.00
2023-02-27T06:15:56.427Z,6.00
2023-02-27T06:16:29.235Z,6.00
2023-02-27T06:17:02.500Z,6.00
2023-02-27T06:17:34.870Z,6.00
2023-02-27T06:18:07.146Z,6.00
2023-02-27T06:18:39.498Z,6.00
2023-02-27T06:19:11.794Z,6.00
2023-02-27T06:19:44.187Z,6.00
2023-02-27T06:20:16.632Z,6.00
2023-02-27T06:20:49.934Z,6.00
2023-02-27T06:21:22.292Z,6.00
2023-02-27T06:21:54.588Z,6.00
2023-02-27T06:22:26.865Z,6.00
2023-02-27T06:22:59.260Z,6.00
2023-02-27T06:23:31.556Z,6.00
2023-02-27T06:24:03.955Z,6.00
2023-02-27T06:24:36.331Z,6.00
2023-02-27T06:25:09.080Z,6.00
2023-02-27T06:25:42.359Z,6.00
2023-02-27T06:26:15.728Z,6.00
2023-02-27T06:26:48.020Z,6.00
2023-02-27T06:27:20.288Z,6.00
2023-02-27T06:27:52.613Z,6.00
2023-02-27T06:28:25.000Z,6.00
2023-02-27T06:28:57.367Z,5.33
2023-02-27T06:29:30.166Z,5.00
2023-02-27T06:30:02.918Z,5.00
2023-02-27T06:30:35.907Z,5.00
2023-02-27T06:31:08.390Z,5.00
2023-02-27T06:31:40.713Z,5.00
2023-02-27T06:32:12.993Z,5.00
2023-02-27T06:32:45.464Z,5.00
2023-02-27T06:33:17.814Z,5.00
2023-02-27T06:33:50.454Z,5.00
2023-02-27T06:34:22.841Z,5.00
2023-02-27T06:34:55.267Z,5.00
2023-02-27T06:35:29.289Z,5.00
2023-02-27T06:36:01.674Z,5.00
2023-02-27T06:36:33.982Z,5.00
2023-02-27T06:37:06.275Z,5.00
2023-02-27T06:37:38.947Z,5.00
2023-02-27T06:38:11.224Z,5.00
2023-02-27T06:38:43.881Z,5.00
2023-02-27T06:39:16.778Z,5.00
2023-02-27T06:39:49.118Z,5.00
2023-02-27T06:40:21.772Z,5.00
2023-02-27T06:40:54.024Z,5.00
2023-02-27T06:41:28.248Z,5.00
2023-02-27T06:42:00.551Z,5.00
2023-02-27T06:42:32.988Z,5.00
2023-02-27T06:43:05.437Z,5.00
2023-02-27T06:43:37.887Z,4.33
2023-02-27T06:44:10.205Z,4.00
2023-02-27T06:44:42.636Z,4.00
2023-02-27T06:45:16.493Z,4.00
2023-02-27T06:45:49.766Z,4.00
2023-02-27T06:46:22.394Z,4.00
2023-02-27T06:46:54.877Z,4.00
2023-02-27T06:47:28.190Z,4.00
2023-02-27T06:48:00.493Z,4.00
2023-02-27T06:48:33.441Z,4.00
2023-02-27T06:49:05.848Z,4.00
2023-02-27T06:49:38.272Z,4.00
2023-02-27T06:50:13.889Z,4.00
2023-02-27T06:50:46.192Z,4.00
2023-02-27T06:51:18.512Z,4.00
2023-02-27T06:51:50.881Z,4.00
2023-02-27T06:52:23.618Z,4.00
2023-02-27T06:52:55.936Z,4.00
2023-02-27T06:53:28.217Z,4.00
2023-02-27T06:54:00.520Z,4.00
2023-02-27T06:54:36.277Z,3.00
2023-02-27T06:55:09.874Z,3.00
2023-02-27T06:55:42.644Z,3.00
2023-02-27T06:56:15.546Z,3.00
2023-02-27T06:56:48.331Z,3.00
2023-02-27T06:57:20.955Z,3.00
2023-02-27T06:57:53.311Z,3.00
2023-02-27T06:58:26.067Z,3.00
2023-02-27T06:58:59.578Z,3.00
2023-02-27T06:59:32.318Z,3.00
2023-02-27T07:00:07.254Z,3.00
2023-02-27T07:00:39.513Z,3.00
2023-02-27T07:01:13.540Z,3.00
2023-02-27T07:01:45.975Z,3.00
2023-02-27T07:02:18.403Z,3.00
2023-02-27T07:02:50.764Z,3.00
2023-02-27T07:03:23.065Z,3.00
2023-02-27T07:03:55.785Z,3.00
2023-02-27T07:04:28.195Z,3.00
2023-02-27T07:05:00.942Z,3.00
2023-02-27T07:05:41.907Z,3.00
2023-02-27T07:06:14.261Z,3.00
2023-02-27T07:07:32.696Z,3.00
2023-02-27T07:07:40.175Z,3.00
2023-02-27T07:08:12.520Z,3.00
2023-02-27T07:09:01.638Z,4.00
2023-02-27T07:09:38.020Z,4.00
2023-02-27T07:10:13.665Z,4.00
2023-02-27T07:10:47.192Z,4.00
2023-02-27T07:11:19.559Z,4.00
2023-02-27T07:11:52.116Z,4.00
2023-02-27T07:12:24.410Z,4.00
2023-02-27T07:12:56.755Z,4.00
2023-02-27T07:13:29.070Z,4.00
2023-02-27T07:14:01.610Z,4.00
2023-02-27T07:14:33.921Z,4.00
2023-02-27T07:15:07.598Z,4.00
2023-02-27T07:15:40.562Z,4.00
2023-02-27T07:16:12.918Z,4.00
2023-02-27T07:16:47.160Z,4.00
2023-02-27T07:17:19.557Z,4.00
2023-02-27T07:17:51.866Z,4.00
2023-02-27T07:18:25.621Z,4.00
2023-02-27T07:18:58.983Z,4.00
2023-02-27T07:19:33.648Z,4.00
2023-02-27T07:20:09.007Z,4.00
2023-02-27T07:20:41.385Z,4.00
2023-02-27T07:21:15.296Z,4.00
2023-02-27T07:21:47.599Z,4.00
2023-02-27T07:22:20.038Z,4.00
2023-02-27T07:22:54.898Z,4.00
2023-02-27T07:23:27.169Z,4.00
2023-02-27T07:23:59.675Z,4.00
2023-02-27T07:24:31.994Z,4.00
2023-02-27T07:25:05.362Z,4.00
2023-02-27T07:25:37.693Z,4.00
2023-02-27T07:26:10.235Z,4.00
2023-02-27T07:26:43.019Z,4.00
2023-02-27T07:27:15.317Z,4.00
2023-02-27T07:27:49.731Z,4.00
2023-02-27T07:28:22.477Z,4.00
2023-02-27T07:28:55.062Z,4.00
2023-02-27T07:29:27.495Z,4.00
2023-02-27T07:30:01.193Z,4.00
2023-02-27T07:30:33.703Z,4.00
2023-02-27T07:31:06.020Z,4.00
2023-02-27T07:31:38.431Z,4.00
2023-02-27T07:32:11.444Z,4.00
2023-02-27T07:32:44.052Z,4.00
2023-02-27T07:33:16.318Z,4.00
2023-02-27T07:33:48.564Z,4.00
2023-02-27T07:34:21.176Z,4.00
2023-02-27T07:34:55.101Z,3.67
2023-02-27T07:35:30.939Z,3.00
2023-02-27T07:36:03.537Z,3.00
2023-02-27T07:36:36.030Z,3.00
2023-02-27T07:37:08.935Z,3.00
2023-02-27T07:37:44.148Z,3.00
2023-02-27T07:38:16.509Z,3.00
2023-02-27T07:38:48.872Z,3.00
2023-02-27T07:39:21.247Z,3.00
2023-02-27T07:39:53.599Z,3.00
2023-02-27T07:40:25.946Z,3.00
2023-02-27T07:40:59.117Z,3.00
2023-02-27T07:41:31.408Z,3.00
2023-02-27T07:42:03.835Z,3.00
2023-02-27T07:42:36.301Z,3.00
2023-02-27T07:43:08.708Z,3.00
2023-02-27T07:43:42.913Z,3.00
2023-02-27T07:44:15.525Z,3.00
2023-02-27T07:44:47.836Z,3.00
2023-02-27T07:45:20.156Z,3.00
2023-02-27T07:45:52.464Z,3.00
2023-02-27T07:46:27.658Z,3.00
2023-02-27T07:47:00.256Z,3.00
2023-02-27T07:47:32.783Z,3.00
2023-02-27T07:48:08.082Z,3.00
2023-02-27T07:48:43.255Z,3.00
2023-02-27T07:49:15.563Z,3.00
2023-02-27T07:49:47.914Z,3.00
2023-02-27T07:50:20.720Z,3.00
2023-02-27T07:50:53.214Z,3.00
2023-02-27T07:51:25.668Z,3.00
2023-02-27T07:51:57.927Z,3.00
2023-02-27T07:53:02.702Z,3.00
2023-02-27T07:53:35.253Z,3.00
2023-02-27T07:54:07.619Z,3.00
2023-02-27T07:54:40.009Z,3.00
2023-02-27T07:55:13.602Z,3.00
2023-02-27T07:55:46.121Z,3.00
2023-02-27T07:56:18.523Z,3.00
2023-02-27T07:56:52.324Z,3.00
2023-02-27T07:57:24.658Z,3.00
2023-02-27T07:57:57.402Z,3.00
2023-02-27T07:58:32.160Z,3.00
2023-02-27T07:59:04.703Z,3.00
2023-02-27T07:59:37.567Z,3.00
2023-02-27T08:00:10.826Z,3.00
2023-02-27T08:00:43.274Z,3.00
2023-02-27T08:01:24.654Z,3.00
2023-02-27T08:02:00.079Z,3.00
2023-02-27T08:02:33.293Z,3.00
2023-02-27T08:03:06.487Z,3.00
2023-02-27T08:03:40.133Z,3.00
2023-02-27T08:04:12.479Z,3.00
2023-02-27T08:04:47.031Z,3.00
2023-02-27T08:05:19.376Z,3.00
2023-02-27T08:05:52.097Z,3.00
2023-02-27T08:06:25.558Z,3.00
2023-02-27T08:06:58.127Z,3.00
2023-02-27T08:07:30.773Z,3.00
2023-02-27T08:08:03.451Z,3.00
2023-02-27T08:08:35.764Z,3.00
2023-02-27T08:09:12.837Z,3.00
2023-02-27T08:09:45.214Z,3.00
2023-02-27T08:10:17.916Z,3.00
2023-02-27T08:10:50.531Z,3.00
2023-02-27T08:11:23.005Z,3.00
2023-02-27T08:11:55.307Z,3.00
2023-02-27T08:12:27.587Z,3.00
2023-02-27T08:12:59.907Z,3.00
2023-02-27T08:13:58.930Z,3.00
2023-02-27T08:14:24.801Z,3.00
2023-02-27T08:14:57.120Z,3.00
2023-02-27T08:15:29.512Z,3.00
2023-02-27T08:16:09.590Z,3.00
2023-02-27T08:16:42.034Z,3.00
2023-02-27T08:17:21.250Z,3.00
2023-02-27T08:17:53.536Z,3.00
2023-02-27T08:18:25.890Z,3.00
2023-02-27T08:18:58.762Z,3.00
2023-02-27T08:19:31.186Z,3.00
2023-02-27T08:20:05.171Z,3.00
2023-02-27T08:20:37.526Z,3.00
2023-02-27T08:21:09.849Z,3.00
2023-02-27T08:21:43.023Z,3.00
2023-02-27T08:22:15.540Z,3.00
2023-02-27T08:22:48.394Z,3.00
2023-02-27T08:23:20.726Z,3.00